createdAt,value
2022-09-11T00:01:56.586Z,5.63
2022-09-11T00:04:23.547Z,4.53
2022-09-11T00:06:50.224Z,6.32
2022-09-11T00:09:16.902Z,5.55
2022-09-11T00:11:43.505Z,4.22
2022-09-11T00:14:11.501Z,5.88
2022-09-11T00:16:39.765Z,3.67
2022-09-11T00:19:07.762Z,3.45
2022-09-11T00:21:34.514Z,5.45
2022-09-11T00:24:01.371Z,6.82
2022-09-11T00:26:28.112Z,5.68
2022-09-11T00:28:55.368Z,5.25
2022-09-11T00:31:26.245Z,4.22
2022-09-11T00:33:52.886Z,6.13
2022-09-11T00:36:21.150Z,6.32
2022-09-11T00:38:48.461Z,4.07
2022-09-11T00:41:16.607Z,5.72
2022-09-11T00:43:54.157Z,6.53
2022-09-11T00:46:23.523Z,5.50
2022-09-11T00:48:50.173Z,5.05
2022-09-11T00:51:26.009Z,5.47
2022-09-11T00:53:54.349Z,6.22
2022-09-11T00:56:21.727Z,5.88
2022-09-11T00:58:49.125Z,4.57
2022-09-11T01:01:16.016Z,4.10
2022-09-11T01:03:49.882Z,4.13
2022-09-11T01:06:16.888Z,4.05
2022-09-11T01:08:46.553Z,4.68
2022-09-11T01:11:31.514Z,4.80
2022-09-11T01:14:01.170Z,3.60
2022-09-11T01:16:34.173Z,6.30
2022-09-11T01:19:05.027Z,4.82
2022-09-11T01:21:57.883Z,4.25
2022-09-11T01:24:49.817Z,3.88
2022-09-11T01:27:36.965Z,5.55
2022-09-11T01:30:10.854Z,3.65
2022-09-11T01:32:48.844Z,4.00
2022-09-11T01:35:22.110Z,4.22
2022-09-11T01:38:17.754Z,5.25
2022-09-11T01:40:52.964Z,4.82
2022-09-11T01:43:24.536Z,5.93
2022-09-11T01:45:59.508Z,4.35
2022-09-11T01:48:39.116Z,4.47
2022-09-11T01:51:15.044Z,4.07
2022-09-11T01:53:50.377Z,5.45
2022-09-11T01:56:20.168Z,4.07
2022-09-11T01:58:47.949Z,3.53
2022-09-11T02:01:18.534Z,4.28
2022-09-11T02:03:47.795Z,3.35
2022-09-11T02:06:16.818Z,2.90
2022-09-11T02:08:47.090Z,3.88
2022-09-11T02:11:18.087Z,4.28
2022-09-11T02:13:58.661Z,4.25
2022-09-11T02:16:45.269Z,6.30
2022-09-11T02:19:13.975Z,2.67
2022-09-11T02:21:40.798Z,5.53
2022-09-11T02:24:09.451Z,6.72
2022-09-11T02:26:39.618Z,3.35
2022-09-11T02:29:06.640Z,3.53
2022-09-11T02:31:35.217Z,3.78
2022-09-11T02:34:02.087Z,4.15
2022-09-11T02:36:32.094Z,4.25
2022-09-11T02:39:20.563Z,2.20
2022-09-11T02:42:07.236Z,4.15
2022-09-11T02:44:54.841Z,4.75
2022-09-11T02:47:25.179Z,3.08
2022-09-11T02:49:52.566Z,4.53
2022-09-11T02:52:40.977Z,2.92
2022-09-11T02:55:13.689Z,2.78
2022-09-11T02:57:55.118Z,5.10
2022-09-11T03:00:22.151Z,2.53
2022-09-11T03:02:49.197Z,3.78
2022-09-11T03:05:15.999Z,3.45
2022-09-11T03:07:43.145Z,5.03
2022-09-11T03:10:11.234Z,3.10
2022-09-11T03:12:38.540Z,4.68
2022-09-11T03:15:06.024Z,5.45
2022-09-11T03:17:33.087Z,6.65
2022-09-11T03:19:59.882Z,6.07
2022-09-11T03:22:26.549Z,4.07
2022-09-11T03:24:53.678Z,1.88
2022-09-11T03:27:21.814Z,3.60
2022-09-11T03:29:50.095Z,2.97
2022-09-11T03:32:16.674Z,3.03
2022-09-11T03:34:43.960Z,3.80
2022-09-11T03:37:11.217Z,4.45
2022-09-11T03:39:40.733Z,2.80
2022-09-11T03:42:07.616Z,3.05
2022-09-11T03:44:34.718Z,1.98
2022-09-11T03:47:01.443Z,2.35
2022-09-11T03:49:28.470Z,3.10
2022-09-11T03:51:55.034Z,2.83
2022-09-11T03:54:22.024Z,7.20
2022-09-11T03:56:49.991Z,4.07
2022-09-11T03:59:16.886Z,3.42
2022-09-11T04:01:47.271Z,3.90
2022-09-11T04:04:15.194Z,2.45
2022-09-11T04:06:43.819Z,4.70
2022-09-11T04:09:10.785Z,3.20
2022-09-11T04:11:40.392Z,3.50
2022-09-11T04:14:19.577Z,4.38
2022-09-11T04:16:46.292Z,2.70
2022-09-11T04:19:13.435Z,3.03
2022-09-11T04:21:45.444Z,3.05
2022-09-11T04:24:12.112Z,3.50
2022-09-11T04:26:38.777Z,3.83
2022-09-11T04:29:11.763Z,2.30
2022-09-11T04:31:41.306Z,3.78
2022-09-11T04:34:09.576Z,2.28
2022-09-11T04:36:37.121Z,4.85
2022-09-11T04:39:04.359Z,3.80
2022-09-11T04:41:31.637Z,1.88
2022-09-11T04:44:05.312Z,2.15
2022-09-11T04:46:36.799Z,2.85
2022-09-11T04:49:08.185Z,5.50
2022-09-11T04:51:36.603Z,3.15
2022-09-11T04:54:04.491Z,2.67
2022-09-11T04:56:36.244Z,3.10
2022-09-11T04:59:13.660Z,3.17
2022-09-11T05:01:44.378Z,1.73
2022-09-11T05:04:12.785Z,2.35
2022-09-11T05:06:40.499Z,1.83
2022-09-11T05:09:11.105Z,2.47
2022-09-11T05:11:39.399Z,3.00
2022-09-11T05:14:06.276Z,3.50
2022-09-11T05:16:35.912Z,3.00
2022-09-11T05:19:04.380Z,4.70
2022-09-11T05:21:33.407Z,1.42
2022-09-11T05:24:01.234Z,2.25
2022-09-11T05:26:31.502Z,3.30
2022-09-11T05:29:01.129Z,4.53
2022-09-11T05:31:32.241Z,2.28
2022-09-11T05:34:00.467Z,4.20
2022-09-11T05:36:27.942Z,4.10
2022-09-11T05:38:54.555Z,2.10
2022-09-11T05:41:21.312Z,3.25
2022-09-11T05:43:48.277Z,3.83
2022-09-11T05:46:17.084Z,4.20
2022-09-11T05:48:46.006Z,2.35
2022-09-11T05:51:18.508Z,4.55
2022-09-11T05:53:46.287Z,2.10
2022-09-11T05:56:15.548Z,3.20
2022-09-11T05:58:43.781Z,2.85
2022-09-11T06:01:12.974Z,3.42
2022-09-11T06:03:41.938Z,2.72
2022-09-11T06:06:11.955Z,4.30
2022-09-11T06:08:39.905Z,4.38
2022-09-11T06:11:07.604Z,3.88
2022-09-11T06:13:39.771Z,3.38
2022-09-11T06:16:08.842Z,4.47
2022-09-11T06:18:35.454Z,3.78
2022-09-11T06:21:05.770Z,3.53
2022-09-11T06:23:39.969Z,2.55
2022-09-11T06:26:08.947Z,3.47
2022-09-11T06:28:38.442Z,2.63
2022-09-11T06:31:06.099Z,3.22
2022-09-11T06:33:36.582Z,2.90
2022-09-11T06:36:08.044Z,3.40
2022-09-11T06:38:35.426Z,2.90
2022-09-11T06:41:05.488Z,3.55
2022-09-11T06:43:35.869Z,2.30
2022-09-11T06:46:06.399Z,3.75
2022-09-11T06:48:33.551Z,4.20
2022-09-11T06:51:04.891Z,4.00
2022-09-11T06:53:32.822Z,4.20
2022-09-11T06:56:06.882Z,2.53
2022-09-11T06:58:34.854Z,3.33
2022-09-11T07:01:03.772Z,3.90
2022-09-11T07:03:32.506Z,2.72
2022-09-11T07:06:00.977Z,4.78
2022-09-11T07:08:28.166Z,4.63
2022-09-11T07:10:55.559Z,5.07
2022-09-11T07:13:24.491Z,6.18
2022-09-11T07:15:59.801Z,5.40
2022-09-11T07:18:26.503Z,8.88
2022-09-11T07:20:53.379Z,6.13
2022-09-11T07:23:20.458Z,6.47
2022-09-11T07:25:48.518Z,8.25
2022-09-11T07:28:15.057Z,7.75
2022-09-11T07:30:41.881Z,6.85
2022-09-11T07:33:09.023Z,7.07
2022-09-11T07:35:39.237Z,7.03
2022-09-11T07:38:08.084Z,7.10
2022-09-11T07:40:38.372Z,7.20
2022-09-11T07:43:05.742Z,7.95
2022-09-11T07:45:33.101Z,9.68
2022-09-11T07:48:01.508Z,6.78
2022-09-11T07:50:29.593Z,7.32
2022-09-11T07:52:57.243Z,9.63
2022-09-11T07:55:24.985Z,10.70
2022-09-11T07:57:54.113Z,11.98
2022-09-11T08:00:22.298Z,10.30
2022-09-11T08:02:54.219Z,13.90
2022-09-11T08:05:30.211Z,12.45
2022-09-11T08:07:58.822Z,18.08
2022-09-11T08:10:27.926Z,18.00
2022-09-11T08:12:59.591Z,12.38
2022-09-11T08:15:30.555Z,14.35
2022-09-11T08:17:59.878Z,16.33
2022-09-11T08:20:26.668Z,15.38
2022-09-11T08:22:53.900Z,15.25
2022-09-11T08:25:20.423Z,13.35
2022-09-11T08:27:46.992Z,13.75
2022-09-11T08:30:17.103Z,12.77
2022-09-11T08:32:46.575Z,13.35
2022-09-11T08:35:13.279Z,13.52
2022-09-11T08:37:40.316Z,17.23
2022-09-11T08:40:08.940Z,14.15
2022-09-11T08:42:37.846Z,17.15
2022-09-11T08:45:06.669Z,15.77
2022-09-11T08:47:39.821Z,31.85
2022-09-11T08:50:15.913Z,47.67
2022-09-11T08:52:44.204Z,54.90
2022-09-11T08:55:17.507Z,69.35
2022-09-11T08:57:50.995Z,53.38
2022-09-11T09:00:21.332Z,60.08
2022-09-11T09:03:23.845Z,59.45
2022-09-11T09:05:57.693Z,48.88
2022-09-11T09:08:31.599Z,48.50
2022-09-11T09:11:08.668Z,56.75
2022-09-11T09:13:36.051Z,60.05
2022-09-11T09:16:09.876Z,52.85
2022-09-11T09:18:39.054Z,55.63
2022-09-11T09:21:09.636Z,52.35
2022-09-11T09:23:39.875Z,52.33
2022-09-11T09:26:11.891Z,55.80
2022-09-11T09:28:41.437Z,60.60
2022-09-11T09:31:10.892Z,54.22
2022-09-11T09:33:42.621Z,47.35
2022-09-11T09:36:15.289Z,51.25
2022-09-11T09:38:43.696Z,44.47
2022-09-11T09:41:28.950Z,49.38
2022-09-11T09:44:10.936Z,46.90
2022-09-11T09:46:41.640Z,54.30
2022-09-11T09:49:10.470Z,49.38
2022-09-11T09:51:37.705Z,42.22
2022-09-11T09:54:04.436Z,43.55
2022-09-11T09:56:32.038Z,45.17
2022-09-11T09:59:19.867Z,45.28
2022-09-11T10:01:48.313Z,43.88
2022-09-11T10:04:16.833Z,38.75
2022-09-11T10:06:45.485Z,48.42
2022-09-11T10:09:22.287Z,39.78
2022-09-11T10:11:53.130Z,44.85
2022-09-11T10:14:49.320Z,32.95
2022-09-11T10:17:19.607Z,33.40
2022-09-11T10:19:46.670Z,36.63
2022-09-11T10:22:32.145Z,40.08
2022-09-11T10:25:12.961Z,36.92
2022-09-11T10:27:52.081Z,34.58
2022-09-11T10:30:30.048Z,36.72
2022-09-11T10:33:03.080Z,34.20
2022-09-11T10:35:31.414Z,35.15
2022-09-11T10:38:07.323Z,35.55
2022-09-11T10:40:34.246Z,30.52
2022-09-11T10:43:00.905Z,33.85
2022-09-11T10:45:27.708Z,33.47
2022-09-11T10:47:54.284Z,32.55
2022-09-11T10:50:25.056Z,32.85
2022-09-11T10:53:10.469Z,32.35
2022-09-11T10:55:40.204Z,32.92
2022-09-11T10:58:29.656Z,32.40
2022-09-11T11:00:56.660Z,37.88
2022-09-11T11:03:27.415Z,29.50
2022-09-11T11:06:12.796Z,28.65
2022-09-11T11:08:39.548Z,30.23
2022-09-11T11:11:14.745Z,26.38
2022-09-11T11:13:50.364Z,31.02
2022-09-11T11:16:17.074Z,28.55
2022-09-11T11:18:53.420Z,25.52
2022-09-11T11:21:28.601Z,24.25
2022-09-11T11:24:09.624Z,28.08
2022-09-11T11:26:36.768Z,24.58
2022-09-11T11:29:11.345Z,35.00
2022-09-11T11:31:45.901Z,25.15
2022-09-11T11:34:25.763Z,25.02
2022-09-11T11:37:01.513Z,27.48
2022-09-11T11:39:41.109Z,27.75
2022-09-11T11:42:21.976Z,27.15
2022-09-11T11:44:54.414Z,25.40
2022-09-11T11:47:25.327Z,28.67
2022-09-11T11:49:55.043Z,28.20
2022-09-11T11:52:38.992Z,18.02
2022-09-11T11:55:23.293Z,27.25
2022-09-11T12:00:17.011Z,23.75
2022-09-11T12:02:48.830Z,24.58
2022-09-11T12:05:24.061Z,22.52
2022-09-11T12:07:51.264Z,22.35
2022-09-11T12:10:22.270Z,20.90
2022-09-11T12:12:55.430Z,26.63
2022-09-11T12:15:25.878Z,29.73
2022-09-11T12:18:00.406Z,23.13
2022-09-11T12:20:32.223Z,21.33
2022-09-11T12:22:59.295Z,24.30
2022-09-11T12:25:27.429Z,23.27
2022-09-11T12:28:09.685Z,22.40
2022-09-11T12:30:56.093Z,21.33
2022-09-11T12:33:40.947Z,22.20
2022-09-11T12:36:09.242Z,23.75
2022-09-11T12:38:38.142Z,24.10
2022-09-11T12:41:13.092Z,20.65
2022-09-11T12:43:41.306Z,23.10
2022-09-11T12:46:20.635Z,16.75
2022-09-11T12:49:05.591Z,19.60
2022-09-11T12:51:37.880Z,19.92
2022-09-11T12:54:16.127Z,19.75
2022-09-11T12:56:47.368Z,17.45
2022-09-11T12:59:21.342Z,17.58
2022-09-11T13:04:17.057Z,18.08
2022-09-11T13:06:48.847Z,19.08
2022-09-11T13:09:25.461Z,20.42
2022-09-11T13:11:53.193Z,18.35
2022-09-11T13:14:33.366Z,20.35
2022-09-11T13:17:01.369Z,19.90
2022-09-11T13:19:34.721Z,19.17
2022-09-11T13:22:01.842Z,20.80
2022-09-11T13:24:32.118Z,16.63
2022-09-11T13:27:09.596Z,17.58
2022-09-11T13:29:37.446Z,14.73
2022-09-11T13:32:08.260Z,18.10
2022-09-11T13:34:36.493Z,14.30
2022-09-11T13:37:08.124Z,18.13
2022-09-11T13:39:36.242Z,18.27
2022-09-11T13:42:03.073Z,15.25
2022-09-11T13:44:35.496Z,16.65
2022-09-11T13:47:02.048Z,14.05
2022-09-11T13:49:32.630Z,12.98
2022-09-11T13:51:59.184Z,18.15
2022-09-11T13:54:31.436Z,15.68
2022-09-11T13:56:57.978Z,15.13
2022-09-11T13:59:44.957Z,12.02
2022-09-11T14:02:34.982Z,15.20
2022-09-11T14:05:20.781Z,12.15
2022-09-11T14:07:56.597Z,15.35
2022-09-11T14:10:25.382Z,13.52
2022-09-11T14:13:12.627Z,15.07
2022-09-11T14:15:43.304Z,13.75
2022-09-11T14:18:17.153Z,13.48
2022-09-11T14:20:44.845Z,13.10
2022-09-11T14:23:15.901Z,12.95
2022-09-11T14:26:02.442Z,18.15
2022-09-11T14:28:36.834Z,12.18
2022-09-11T14:31:07.766Z,14.20
2022-09-11T14:33:34.479Z,13.30
2022-09-11T14:36:19.071Z,11.63
2022-09-11T14:38:47.584Z,12.45
2022-09-11T14:41:14.473Z,10.68
2022-09-11T14:43:41.050Z,13.27
2022-09-11T14:46:07.786Z,12.23
2022-09-11T14:48:35.088Z,12.82
2022-09-11T14:51:03.475Z,14.82
2022-09-11T14:53:33.272Z,18.02
2022-09-11T14:56:00.647Z,12.32
2022-09-11T14:58:27.994Z,15.75
2022-09-11T15:00:54.891Z,12.02
2022-09-11T15:03:22.544Z,17.48
2022-09-11T15:05:51.874Z,15.77
2022-09-11T15:08:18.494Z,14.23
2022-09-11T15:10:46.463Z,13.90
2022-09-11T15:13:13.457Z,18.75
2022-09-11T15:15:40.883Z,17.00
2022-09-11T15:18:07.960Z,13.82
2022-09-11T15:20:34.580Z,13.32
2022-09-11T15:23:01.473Z,14.85
2022-09-11T15:25:28.029Z,15.20
2022-09-11T15:27:54.756Z,15.85
2022-09-11T15:30:21.829Z,17.40
2022-09-11T15:32:49.006Z,12.18
2022-09-11T15:35:18.452Z,13.30
2022-09-11T15:37:46.828Z,11.55
2022-09-11T15:40:13.879Z,10.48
2022-09-11T15:42:40.644Z,14.52
2022-09-11T15:45:07.913Z,8.30
2022-09-11T15:47:34.404Z,10.27
2022-09-11T15:50:01.614Z,7.55
2022-09-11T15:52:29.465Z,9.30
2022-09-11T15:54:56.687Z,11.55
2022-09-11T15:57:23.425Z,11.95
2022-09-11T15:59:51.984Z,9.10
2022-09-11T16:02:20.930Z,7.10
2022-09-11T16:04:53.763Z,8.57
2022-09-11T16:07:21.009Z,10.43
2022-09-11T16:09:47.498Z,9.55
2022-09-11T16:12:17.776Z,5.78
2022-09-11T16:14:44.494Z,8.82
2022-09-11T16:17:11.456Z,9.07
2022-09-11T16:19:38.666Z,8.68
2022-09-11T16:22:05.944Z,6.72
2022-09-11T16:24:37.845Z,6.80
2022-09-11T16:27:08.215Z,5.80
2022-09-11T16:30:05.503Z,5.47
2022-09-11T16:32:28.718Z,8.50
2022-09-11T16:34:56.894Z,5.53
2022-09-11T16:37:23.528Z,4.78
2022-09-11T16:39:50.759Z,7.88
2022-09-11T16:42:21.755Z,6.88
2022-09-11T16:44:49.446Z,4.90
2022-09-11T16:47:16.635Z,5.55
2022-09-11T16:52:29.961Z,4.22
2022-09-11T16:54:56.533Z,6.97
2022-09-11T16:57:23.264Z,5.50
2022-09-11T16:59:50.958Z,10.05
2022-09-11T17:02:17.689Z,5.30
2022-09-11T17:04:44.213Z,4.40
2022-09-11T17:07:10.767Z,4.00
2022-09-11T17:09:38.786Z,4.32
2022-09-11T17:12:05.338Z,4.90
2022-09-11T17:14:32.931Z,5.70
2022-09-11T17:16:59.520Z,4.75
2022-09-11T17:19:26.097Z,4.88
2022-09-11T17:21:52.696Z,4.25
2022-09-11T17:24:21.664Z,4.00
2022-09-11T17:26:51.362Z,5.00
2022-09-11T17:29:19.498Z,3.47
2022-09-11T17:31:46.281Z,4.43
2022-09-11T17:34:14.145Z,4.35
2022-09-11T17:36:40.842Z,3.92
2022-09-11T17:39:07.353Z,4.22
2022-09-11T17:41:34.085Z,4.75
2022-09-11T17:44:00.694Z,4.70
2022-09-11T17:46:27.714Z,4.72
2022-09-11T17:48:54.334Z,5.32
2022-09-11T17:51:22.293Z,6.00
2022-09-11T17:53:50.330Z,3.05
2022-09-11T17:56:18.748Z,4.05
2022-09-11T17:58:49.378Z,3.40
2022-09-11T18:01:17.080Z,3.90
2022-09-11T18:03:44.439Z,3.92
2022-09-11T18:06:18.769Z,4.75
2022-09-11T18:08:46.388Z,5.25
2022-09-11T18:11:13.249Z,3.42
2022-09-11T18:13:40.036Z,4.03
2022-09-11T18:16:11.297Z,3.35
2022-09-11T18:18:39.417Z,4.38
2022-09-11T18:21:07.226Z,3.53
2022-09-11T18:23:35.838Z,3.55
2022-09-11T18:26:02.864Z,4.05
2022-09-11T18:28:29.938Z,5.25
2022-09-11T18:31:06.053Z,3.45
2022-09-11T18:33:32.967Z,2.90
2022-09-11T18:36:07.974Z,4.40
2022-09-11T18:38:35.057Z,4.90
2022-09-11T18:41:02.089Z,3.58
2022-09-11T18:43:28.964Z,4.60
2022-09-11T18:45:56.068Z,5.13
2022-09-11T18:48:23.106Z,8.43
2022-09-11T18:50:49.788Z,4.53
2022-09-11T18:53:17.265Z,4.72
2022-09-11T18:55:43.889Z,4.25
2022-09-11T18:58:10.700Z,4.90
2022-09-11T19:00:37.589Z,5.35
2022-09-11T19:03:04.407Z,5.07
2022-09-11T19:05:31.155Z,5.30
2022-09-11T19:08:00.195Z,3.67
2022-09-11T19:10:27.046Z,3.22
2022-09-11T19:12:54.198Z,4.50
2022-09-11T19:15:20.738Z,3.25
2022-09-11T19:17:48.893Z,3.80
2022-09-11T19:20:17.100Z,3.15
2022-09-11T19:22:44.269Z,4.10
2022-09-11T19:25:11.120Z,3.47
2022-09-11T19:27:38.120Z,4.65
2022-09-11T19:30:06.295Z,4.05
2022-09-11T19:32:33.244Z,3.83
2022-09-11T19:35:00.418Z,3.58
2022-09-11T19:37:28.367Z,3.65
2022-09-11T19:39:57.267Z,4.15
2022-09-11T19:42:26.747Z,2.83
2022-09-11T19:44:56.309Z,4.32
2022-09-11T19:47:25.027Z,3.30
2022-09-11T19:49:51.707Z,4.15
2022-09-11T19:52:18.480Z,3.45
2022-09-11T19:54:45.032Z,4.30
2022-09-11T19:57:11.581Z,2.95
2022-09-11T19:59:38.370Z,5.00
2022-09-11T20:02:04.946Z,3.00
2022-09-11T20:04:31.726Z,2.45
2022-09-11T20:06:59.769Z,3.70
2022-09-11T20:09:31.325Z,3.47
2022-09-11T20:12:00.753Z,3.35
2022-09-11T20:14:27.860Z,6.80
2022-09-11T20:16:54.487Z,3.00
2022-09-11T20:19:21.099Z,3.75
2022-09-11T20:21:47.659Z,5.40
2022-09-11T20:24:15.091Z,4.28
2022-09-11T20:26:42.109Z,5.43
2022-09-11T20:29:11.987Z,5.53
2022-09-11T20:31:46.838Z,8.23
2022-09-11T20:34:15.092Z,5.43
2022-09-11T20:36:41.613Z,3.08
2022-09-11T20:39:10.146Z,6.25
2022-09-11T20:41:37.148Z,4.60
2022-09-11T20:44:04.197Z,3.47
2022-09-11T20:46:30.993Z,4.55
2022-09-11T20:48:57.676Z,4.75
2022-09-11T20:51:24.562Z,3.03
2022-09-11T20:53:52.103Z,5.38
2022-09-11T20:56:20.641Z,3.33
2022-09-11T20:58:47.305Z,3.92
2022-09-11T21:01:15.591Z,3.42
2022-09-11T21:03:46.546Z,5.13
2022-09-11T21:06:13.302Z,3.40
2022-09-11T21:08:41.184Z,4.90
2022-09-11T21:11:08.388Z,3.30
2022-09-11T21:13:36.167Z,3.22
2022-09-11T21:16:05.410Z,3.28
2022-09-11T21:18:32.006Z,3.03
2022-09-11T21:20:58.946Z,4.00
2022-09-11T21:23:25.471Z,4.38
2022-09-11T21:25:52.819Z,4.47
2022-09-11T21:28:19.845Z,4.80
2022-09-11T21:30:46.406Z,3.92
2022-09-11T21:33:13.124Z,4.35
2022-09-11T21:35:39.689Z,3.13
2022-09-11T21:38:06.244Z,4.13
2022-09-11T21:40:33.019Z,5.30
2022-09-11T21:42:59.679Z,3.30
2022-09-11T21:45:29.265Z,4.18
2022-09-11T21:47:56.047Z,3.42
2022-09-11T21:50:22.747Z,6.75
2022-09-11T21:52:49.527Z,6.43
2022-09-11T21:55:16.267Z,4.10
2022-09-11T21:57:45.146Z,3.47
2022-09-11T22:00:12.922Z,3.90
2022-09-11T22:02:39.625Z,4.32
2022-09-11T22:05:06.506Z,6.93
2022-09-11T22:07:33.089Z,2.92
2022-09-11T22:10:03.783Z,3.17
2022-09-11T22:12:30.422Z,3.70
2022-09-11T22:14:57.054Z,2.50
2022-09-11T22:17:23.912Z,3.33
2022-09-11T22:19:50.602Z,4.15
2022-09-11T22:22:17.620Z,4.55
2022-09-11T22:24:44.162Z,3.55
2022-09-11T22:27:10.735Z,5.45
2022-09-11T22:29:37.445Z,4.43
2022-09-11T22:32:04.854Z,2.65
2022-09-11T22:34:35.533Z,3.63
2022-09-11T22:37:02.365Z,3.30
2022-09-11T22:39:29.050Z,3.05
2022-09-11T22:41:55.908Z,3.10
2022-09-11T22:44:22.594Z,5.93
2022-09-11T22:46:49.182Z,4.05
2022-09-11T22:49:15.784Z,4.68
2022-09-11T22:51:42.452Z,3.30
2022-09-11T22:54:09.138Z,3.30
2022-09-11T22:56:35.770Z,3.72
2022-09-11T22:59:02.261Z,5.13
2022-09-11T23:01:28.957Z,4.20
2022-09-11T23:03:55.562Z,4.60
2022-09-11T23:06:41.066Z,6.18
2022-09-11T23:09:09.442Z,3.25
2022-09-11T23:11:36.226Z,4.93
2022-09-11T23:14:02.901Z,3.47
2022-09-11T23:16:29.974Z,3.58
2022-09-11T23:18:57.600Z,3.05
2022-09-11T23:21:24.820Z,4.80
2022-09-11T23:23:54.563Z,3.95
2022-09-11T23:26:21.743Z,2.67
2022-09-11T23:28:48.544Z,4.15
2022-09-11T23:31:25.732Z,4.20
2022-09-11T23:33:53.864Z,3.97
2022-09-11T23:36:20.637Z,4.38
2022-09-11T23:38:47.725Z,3.40
2022-09-11T23:41:14.605Z,5.80
2022-09-11T23:43:41.337Z,2.90
2022-09-11T23:46:08.105Z,4.85
2022-09-11T23:48:34.742Z,3.45
2022-09-11T23:51:01.325Z,3.45
2022-09-11T23:53:31.133Z,4.10
2022-09-11T23:55:58.131Z,4.82
2022-09-11T23:58:24.731Z,6.43
